createdAt,value
2023-03-01T00:02:17.893Z,122.95
2023-03-01T00:04:48.907Z,113.72
2023-03-01T00:07:19.070Z,103.47
2023-03-01T00:09:49.339Z,106.55
2023-03-01T00:12:19.456Z,90.68
2023-03-01T00:14:49.905Z,95.07
2023-03-01T00:17:20.670Z,92.60
2023-03-01T00:19:51.027Z,91.22
2023-03-01T00:22:21.353Z,91.63
2023-03-01T00:24:51.427Z,105.82
2023-03-01T00:27:21.612Z,105.38
2023-03-01T00:29:52.064Z,92.10
2023-03-01T00:32:22.613Z,105.78
2023-03-01T00:34:58.133Z,94.70
2023-03-01T00:37:28.350Z,92.90
2023-03-01T00:39:58.798Z,75.68
2023-03-01T00:42:28.941Z,73.32
2023-03-01T00:44:59.514Z,78.70
2023-03-01T00:47:32.355Z,70.05
2023-03-01T00:50:03.054Z,80.63
2023-03-01T00:52:33.523Z,85.40
2023-03-01T00:55:03.844Z,95.95
2023-03-01T00:57:34.954Z,94.70
2023-03-01T01:00:06.930Z,104.78
2023-03-01T01:02:37.912Z,99.63
2023-03-01T01:05:08.739Z,102.63
2023-03-01T01:07:39.570Z,107.18
2023-03-01T01:10:10.666Z,112.53
2023-03-01T01:12:41.126Z,109.65
2023-03-01T01:15:14.822Z,113.57
2023-03-01T01:17:45.156Z,109.57
2023-03-01T01:20:15.680Z,110.32
2023-03-01T01:22:46.274Z,107.68
2023-03-01T01:25:16.789Z,104.65
2023-03-01T01:27:47.112Z,103.43
2023-03-01T01:30:17.621Z,106.15
2023-03-01T01:32:47.813Z,100.43
2023-03-01T01:35:18.378Z,97.22
2023-03-01T01:37:49.180Z,95.75
2023-03-01T01:40:19.927Z,98.20
2023-03-01T01:42:50.414Z,98.25
2023-03-01T01:45:40.199Z,99.45
2023-03-01T01:48:19.919Z,90.85
2023-03-01T01:50:59.919Z,85.88
2023-03-01T01:53:31.667Z,86.75
2023-03-01T01:56:05.517Z,92.65
2023-03-01T01:58:36.008Z,87.97
2023-03-01T02:01:07.196Z,91.70
2023-03-01T02:03:44.593Z,93.10
2023-03-01T02:06:44.480Z,91.47
2023-03-01T02:09:18.629Z,97.10
2023-03-01T02:11:50.024Z,97.07
2023-03-01T02:14:20.328Z,98.22
2023-03-01T02:16:51.275Z,93.72
2023-03-01T02:19:50.298Z,96.53
2023-03-01T02:22:30.445Z,99.15
2023-03-01T02:25:30.539Z,100.00
2023-03-01T02:28:40.256Z,115.68
2023-03-01T02:31:32.362Z,113.15
2023-03-01T02:34:03.356Z,113.50
2023-03-01T02:37:00.988Z,107.32
2023-03-01T02:39:39.703Z,99.85
2023-03-01T02:42:13.624Z,98.38
2023-03-01T02:44:43.872Z,99.97
2023-03-01T02:47:14.465Z,96.78
2023-03-01T02:49:44.746Z,96.43
2023-03-01T02:52:41.874Z,90.75
2023-03-01T02:55:18.948Z,92.68
2023-03-01T02:57:54.006Z,94.68
2023-03-01T03:00:35.704Z,91.22
2023-03-01T03:03:09.310Z,87.28
2023-03-01T03:05:40.179Z,89.47
2023-03-01T03:08:10.754Z,87.50
2023-03-01T03:10:43.926Z,87.65
2023-03-01T03:13:16.787Z,88.93
2023-03-01T03:15:47.728Z,91.40
2023-03-01T03:18:19.819Z,83.53
2023-03-01T03:20:49.923Z,79.60
2023-03-01T03:23:20.696Z,82.63
2023-03-01T03:25:54.391Z,79.85
2023-03-01T03:28:24.856Z,82.57
2023-03-01T03:30:55.369Z,75.80
2023-03-01T03:33:25.699Z,68.40
2023-03-01T03:35:56.161Z,67.88
2023-03-01T03:38:26.865Z,70.40
2023-03-01T03:41:10.072Z,66.85
2023-03-01T03:43:43.003Z,67.50
2023-03-01T03:46:15.025Z,68.10
2023-03-01T03:48:47.334Z,70.15
2023-03-01T03:51:20.314Z,63.95
2023-03-01T03:53:51.029Z,64.75
2023-03-01T03:56:21.157Z,68.13
2023-03-01T03:58:51.755Z,67.15
2023-03-01T04:01:22.411Z,66.40
2023-03-01T04:03:56.916Z,65.18
2023-03-01T04:06:27.515Z,64.60
2023-03-01T04:09:00.794Z,63.28
2023-03-01T04:11:31.714Z,66.20
2023-03-01T04:14:02.637Z,62.65
2023-03-01T04:16:33.425Z,63.78
2023-03-01T04:19:04.609Z,64.32
2023-03-01T04:21:35.273Z,63.10
2023-03-01T04:24:06.287Z,62.47
2023-03-01T04:26:36.514Z,59.15
2023-03-01T04:29:06.953Z,59.88
2023-03-01T04:31:37.488Z,60.05
2023-03-01T04:34:08.057Z,64.28
2023-03-01T04:36:39.042Z,65.63
2023-03-01T04:39:14.633Z,59.55
2023-03-01T04:41:48.569Z,58.97
2023-03-01T04:44:19.210Z,57.70
2023-03-01T04:46:52.742Z,61.35
2023-03-01T04:49:22.952Z,61.78
2023-03-01T04:51:53.446Z,54.97
2023-03-01T04:54:24.410Z,55.80
2023-03-01T04:56:54.961Z,55.33
2023-03-01T04:59:25.178Z,53.95
2023-03-01T05:02:00.477Z,56.67
2023-03-01T05:04:30.877Z,66.35
2023-03-01T05:07:01.383Z,64.55
2023-03-01T05:09:31.982Z,56.63
2023-03-01T05:12:02.446Z,58.47
2023-03-01T05:14:32.987Z,54.72
2023-03-01T05:17:06.436Z,56.70
2023-03-01T05:19:36.923Z,50.78
2023-03-01T05:22:07.621Z,48.30
2023-03-01T05:24:38.388Z,47.50
2023-03-01T05:27:08.806Z,48.08
2023-03-01T05:29:39.184Z,44.90
2023-03-01T05:32:11.411Z,47.00
2023-03-01T05:34:42.466Z,45.92
2023-03-01T05:37:12.556Z,46.20
2023-03-01T05:39:44.332Z,49.50
2023-03-01T05:42:15.505Z,48.33
2023-03-01T05:44:45.600Z,44.22
2023-03-01T05:47:15.932Z,41.45
2023-03-01T05:49:46.228Z,41.67
2023-03-01T05:52:16.259Z,43.60
2023-03-01T05:54:46.529Z,43.83
2023-03-01T05:57:17.403Z,59.20
2023-03-01T05:59:49.036Z,41.75
2023-03-01T06:02:19.105Z,40.63
2023-03-01T06:04:49.988Z,42.03
2023-03-01T06:07:20.262Z,40.10
2023-03-01T06:09:50.567Z,40.03
2023-03-01T06:12:21.414Z,37.67
2023-03-01T06:14:52.208Z,36.72
2023-03-01T06:17:23.153Z,36.15
2023-03-01T06:19:53.597Z,35.75
2023-03-01T06:22:24.138Z,37.47
2023-03-01T06:24:54.428Z,36.45
2023-03-01T06:27:25.422Z,37.25
2023-03-01T06:29:56.564Z,35.40
2023-03-01T06:32:27.536Z,36.67
2023-03-01T06:34:57.785Z,36.70
2023-03-01T06:37:28.685Z,32.72
2023-03-01T06:39:59.049Z,29.10
2023-03-01T06:42:29.535Z,29.20
2023-03-01T06:45:00.105Z,30.83
2023-03-01T06:47:30.535Z,30.92
2023-03-01T06:50:00.704Z,30.13
2023-03-01T06:52:32.110Z,29.98
2023-03-01T06:55:03.097Z,29.80
2023-03-01T06:57:33.998Z,28.10
2023-03-01T07:00:05.259Z,28.02
2023-03-01T07:02:36.257Z,27.77
2023-03-01T07:05:07.570Z,30.27
2023-03-01T07:07:38.148Z,28.73
2023-03-01T07:10:09.088Z,28.48
2023-03-01T07:12:39.931Z,28.77
2023-03-01T07:15:12.475Z,28.10
2023-03-01T07:17:42.691Z,27.35
2023-03-01T07:20:14.183Z,26.80
2023-03-01T07:22:47.593Z,27.92
2023-03-01T07:25:18.178Z,28.05
2023-03-01T07:27:53.453Z,26.20
2023-03-01T07:30:24.944Z,25.88
2023-03-01T07:32:56.035Z,26.15
2023-03-01T07:35:28.239Z,25.77
2023-03-01T07:37:59.234Z,26.50
2023-03-01T07:40:29.714Z,25.60
2023-03-01T07:43:03.859Z,26.70
2023-03-01T07:45:34.461Z,25.77
2023-03-01T07:48:05.136Z,26.58
2023-03-01T07:50:35.138Z,25.85
2023-03-01T07:53:05.531Z,25.08
2023-03-01T07:55:35.641Z,25.05
2023-03-01T07:58:06.724Z,25.42
2023-03-01T08:00:37.038Z,22.45
2023-03-01T08:03:07.271Z,23.67
2023-03-01T08:05:37.567Z,25.08
2023-03-01T08:08:08.131Z,24.65
2023-03-01T08:10:40.229Z,23.35
2023-03-01T08:13:10.557Z,25.73
2023-03-01T08:15:41.273Z,24.08
2023-03-01T08:18:14.579Z,22.08
2023-03-01T08:20:45.007Z,23.63
2023-03-01T08:23:15.796Z,20.80
2023-03-01T08:25:46.485Z,22.38
2023-03-01T08:28:16.782Z,22.88
2023-03-01T08:30:47.148Z,23.13
2023-03-01T08:33:17.234Z,22.63
2023-03-01T08:35:47.746Z,23.83
2023-03-01T08:38:17.879Z,22.02
2023-03-01T08:40:48.003Z,21.65
2023-03-01T08:43:18.869Z,22.25
2023-03-01T08:45:52.240Z,23.23
2023-03-01T08:48:22.388Z,22.17
2023-03-01T08:50:54.262Z,21.77
2023-03-01T08:53:25.136Z,22.25
2023-03-01T08:55:55.600Z,21.40
2023-03-01T08:58:26.324Z,22.15
2023-03-01T09:00:56.802Z,21.92
2023-03-01T09:03:28.180Z,21.52
2023-03-01T09:06:04.346Z,20.73
2023-03-01T09:08:37.303Z,21.08
2023-03-01T09:11:09.202Z,21.55
2023-03-01T09:13:40.850Z,21.55
2023-03-01T09:16:14.132Z,24.67
2023-03-01T09:18:45.095Z,22.23
2023-03-01T09:21:21.005Z,21.67
2023-03-01T09:23:55.115Z,21.27
2023-03-01T09:26:26.532Z,21.05
2023-03-01T09:28:58.545Z,19.92
2023-03-01T09:31:28.955Z,21.00
2023-03-01T09:33:59.559Z,23.25
2023-03-01T09:36:30.234Z,22.35
2023-03-01T09:39:05.333Z,23.45
2023-03-01T09:42:04.497Z,24.38
2023-03-01T09:45:00.271Z,23.15
2023-03-01T09:47:34.591Z,22.23
2023-03-01T09:50:14.677Z,22.90
2023-03-01T09:53:07.032Z,21.58
2023-03-01T09:55:46.186Z,21.73
2023-03-01T09:58:55.723Z,22.00
2023-03-01T10:02:05.323Z,20.63
2023-03-01T10:04:58.138Z,21.45
2023-03-01T10:07:55.030Z,21.88
2023-03-01T10:10:46.663Z,22.85
2023-03-01T10:13:46.770Z,25.20
2023-03-01T10:16:56.651Z,28.45
2023-03-01T10:19:49.142Z,24.50
2023-03-01T10:22:37.424Z,23.25
2023-03-01T10:25:08.380Z,24.13
2023-03-01T10:27:53.118Z,22.60
2023-03-01T10:30:46.527Z,23.33
2023-03-01T10:33:26.030Z,22.67
2023-03-01T10:35:56.645Z,22.40
2023-03-01T10:38:27.351Z,21.88
2023-03-01T10:41:14.576Z,22.75
2023-03-01T10:43:51.738Z,23.60
2023-03-01T10:46:36.675Z,24.35
2023-03-01T10:49:28.188Z,24.75
2023-03-01T10:51:58.815Z,24.75
2023-03-01T10:54:33.338Z,24.38
2023-03-01T10:57:06.451Z,24.73
2023-03-01T10:59:40.326Z,25.23
2023-03-01T11:02:36.598Z,25.13
2023-03-01T11:05:28.696Z,25.52
2023-03-01T11:08:01.328Z,26.25
2023-03-01T11:10:34.634Z,25.55
2023-03-01T11:13:24.326Z,26.35
2023-03-01T11:16:15.600Z,28.55
2023-03-01T11:18:48.326Z,27.70
2023-03-01T11:21:21.703Z,27.20
2023-03-01T11:23:51.751Z,27.85
2023-03-01T11:26:23.008Z,27.75
2023-03-01T11:28:58.632Z,27.20
2023-03-01T11:31:30.338Z,28.20
2023-03-01T11:34:23.259Z,28.52
2023-03-01T11:37:01.934Z,28.02
2023-03-01T11:39:59.044Z,28.80
2023-03-01T11:43:01.010Z,29.35
2023-03-01T11:45:58.235Z,28.63
2023-03-01T11:48:49.232Z,54.38
2023-03-01T11:51:40.571Z,30.42
2023-03-01T11:54:42.451Z,56.60
2023-03-01T11:57:44.398Z,33.08
2023-03-01T12:00:39.707Z,36.03
2023-03-01T12:03:47.867Z,34.95
2023-03-01T12:06:58.143Z,35.35
2023-03-01T12:09:51.786Z,32.58
2023-03-01T12:12:50.102Z,34.65
2023-03-01T12:15:48.609Z,32.45
2023-03-01T12:18:57.835Z,33.38
2023-03-01T12:21:54.916Z,31.75
2023-03-01T12:24:51.482Z,33.40
2023-03-01T12:28:01.318Z,32.28
2023-03-01T12:31:02.325Z,31.95
2023-03-01T12:34:04.358Z,30.40
2023-03-01T12:37:02.660Z,30.42
2023-03-01T12:40:06.460Z,31.88
2023-03-01T12:43:07.616Z,31.85
2023-03-01T12:46:09.880Z,31.92
2023-03-01T12:49:08.427Z,32.47
2023-03-01T12:51:41.560Z,32.53
2023-03-01T12:54:19.929Z,33.65
2023-03-01T12:56:55.018Z,34.55
2023-03-01T12:59:46.688Z,31.60
2023-03-01T13:02:29.598Z,36.97
2023-03-01T13:05:39.257Z,32.33
2023-03-01T13:08:40.655Z,32.92
2023-03-01T13:11:23.621Z,37.95
2023-03-01T13:13:57.044Z,33.55
2023-03-01T13:16:51.413Z,33.45
2023-03-01T13:19:32.612Z,34.05
2023-03-01T13:22:03.096Z,34.10
2023-03-01T13:24:48.569Z,37.28
2023-03-01T13:27:27.784Z,46.72
2023-03-01T13:30:08.248Z,50.13
2023-03-01T13:32:45.132Z,42.65
2023-03-01T13:35:44.963Z,38.97
2023-03-01T13:38:54.290Z,41.40
2023-03-01T13:41:53.457Z,40.42
2023-03-01T13:44:38.459Z,43.08
2023-03-01T13:47:30.090Z,42.15
2023-03-01T13:50:09.322Z,42.80
2023-03-01T13:53:07.855Z,40.95
2023-03-01T13:56:05.311Z,40.85
2023-03-01T13:58:46.747Z,39.65
2023-03-01T14:01:37.903Z,40.05
2023-03-01T14:04:30.811Z,42.33
2023-03-01T14:07:23.171Z,42.78
2023-03-01T14:10:07.314Z,39.00
2023-03-01T14:13:15.633Z,37.58
2023-03-01T14:16:04.375Z,37.08
2023-03-01T14:18:46.398Z,35.47
2023-03-01T14:21:18.839Z,35.22
2023-03-01T14:23:49.934Z,35.85
2023-03-01T14:26:25.900Z,34.17
2023-03-01T14:28:56.206Z,36.55
2023-03-01T14:31:52.468Z,35.95
2023-03-01T14:34:26.563Z,35.58
2023-03-01T14:36:57.458Z,36.85
2023-03-01T14:39:29.250Z,36.08
2023-03-01T14:42:07.712Z,36.72
2023-03-01T14:44:52.283Z,38.58
2023-03-01T14:47:36.257Z,38.30
2023-03-01T14:50:24.347Z,38.15
2023-03-01T14:52:58.640Z,36.38
2023-03-01T14:55:51.814Z,37.55
2023-03-01T14:58:25.531Z,46.65
2023-03-01T15:01:06.681Z,34.67
2023-03-01T15:04:00.030Z,35.30
2023-03-01T15:06:31.307Z,38.33
2023-03-01T15:09:02.470Z,37.83
2023-03-01T15:11:36.208Z,39.67
2023-03-01T15:14:30.534Z,39.08
2023-03-01T15:17:00.840Z,39.97
2023-03-01T15:19:31.767Z,37.95
2023-03-01T15:22:01.941Z,37.60
2023-03-01T15:24:35.708Z,37.38
2023-03-01T15:27:09.165Z,34.08
2023-03-01T15:29:43.112Z,36.28
2023-03-01T15:32:35.382Z,35.50
2023-03-01T15:35:44.803Z,35.15
2023-03-01T15:38:37.078Z,265.52
2023-03-01T15:41:25.336Z,52.47
2023-03-01T15:43:58.938Z,52.95
2023-03-01T15:46:42.991Z,41.97
2023-03-01T15:49:55.246Z,32.83
2023-03-01T15:52:34.281Z,42.90
2023-03-01T15:55:09.173Z,36.55
2023-03-01T15:57:39.605Z,37.17
2023-03-01T16:00:15.730Z,40.55
2023-03-01T16:02:46.995Z,37.08
2023-03-01T16:05:26.904Z,35.92
2023-03-01T16:07:57.237Z,32.58
2023-03-01T16:10:28.252Z,34.70
2023-03-01T16:12:58.340Z,35.50
2023-03-01T16:15:40.420Z,32.25
2023-03-01T16:18:12.868Z,31.85
2023-03-01T16:20:44.011Z,32.20
2023-03-01T16:23:14.797Z,34.40
2023-03-01T16:25:45.182Z,32.25
2023-03-01T16:28:16.678Z,33.47
2023-03-01T16:30:51.264Z,33.47
2023-03-01T16:33:26.446Z,34.20
2023-03-01T16:36:02.608Z,38.40
2023-03-01T16:38:35.218Z,34.78
2023-03-01T16:41:05.488Z,35.60
2023-03-01T16:43:35.641Z,33.75
2023-03-01T16:46:14.030Z,36.78
2023-03-01T16:48:44.413Z,36.65
2023-03-01T16:51:15.130Z,35.13
2023-03-01T16:53:47.365Z,36.25
2023-03-01T16:56:19.263Z,37.03
2023-03-01T16:58:49.842Z,36.38
2023-03-01T17:01:22.626Z,35.97
2023-03-01T17:03:53.864Z,37.00
2023-03-01T17:06:27.261Z,37.55
2023-03-01T17:08:57.410Z,37.00
2023-03-01T17:11:27.704Z,37.30
2023-03-01T17:13:57.874Z,38.08
2023-03-01T17:16:29.320Z,37.92
2023-03-01T17:18:59.520Z,38.30
2023-03-01T17:21:30.050Z,38.30
2023-03-01T17:24:01.095Z,37.35
2023-03-01T17:26:32.134Z,36.45
2023-03-01T17:29:02.594Z,37.22
2023-03-01T17:31:34.038Z,38.17
2023-03-01T17:34:04.747Z,38.97
2023-03-01T17:36:43.216Z,37.75
2023-03-01T17:39:13.718Z,37.22
2023-03-01T17:41:44.024Z,38.30
2023-03-01T17:44:14.493Z,38.83
2023-03-01T17:46:44.677Z,38.25
2023-03-01T17:49:15.055Z,38.70
2023-03-01T17:51:46.096Z,37.83
2023-03-01T17:54:16.358Z,39.92
2023-03-01T17:56:47.952Z,38.80
2023-03-01T17:59:21.056Z,37.75
2023-03-01T18:01:51.283Z,37.40
2023-03-01T18:04:22.839Z,39.58
2023-03-01T18:06:53.039Z,38.28
2023-03-01T18:09:23.851Z,38.47
2023-03-01T18:11:55.408Z,37.58
2023-03-01T18:14:26.384Z,38.78
2023-03-01T18:16:56.322Z,39.17
2023-03-01T18:19:26.446Z,38.58
2023-03-01T18:21:57.333Z,40.20
2023-03-01T18:24:28.449Z,38.17
2023-03-01T18:26:59.031Z,38.83
2023-03-01T18:29:29.870Z,37.10
2023-03-01T18:32:00.757Z,40.72
2023-03-01T18:34:31.134Z,38.63
2023-03-01T18:37:09.058Z,38.70
2023-03-01T18:39:40.517Z,38.60
2023-03-01T18:42:11.473Z,39.85
2023-03-01T18:44:41.626Z,39.40
2023-03-01T18:47:12.228Z,40.13
2023-03-01T18:49:42.469Z,39.40
2023-03-01T18:52:13.202Z,40.97
2023-03-01T18:54:43.582Z,40.17
2023-03-01T18:57:14.054Z,41.42
2023-03-01T18:59:44.610Z,41.03
2023-03-01T19:02:17.166Z,42.28
2023-03-01T19:04:48.669Z,44.25
2023-03-01T19:07:19.180Z,45.35
2023-03-01T19:09:49.696Z,45.75
2023-03-01T19:12:19.881Z,45.67
2023-03-01T19:14:49.989Z,43.70
2023-03-01T19:17:21.559Z,45.22
2023-03-01T19:19:52.620Z,44.05
2023-03-01T19:22:22.809Z,43.40
2023-03-01T19:24:53.279Z,41.92
2023-03-01T19:27:23.479Z,42.38
2023-03-01T19:29:53.624Z,41.95
2023-03-01T19:32:23.810Z,42.13
2023-03-01T19:34:54.014Z,43.05
2023-03-01T19:37:25.454Z,41.50
2023-03-01T19:39:55.651Z,40.80
2023-03-01T19:42:28.825Z,41.40
2023-03-01T19:44:58.991Z,42.25
2023-03-01T19:47:29.260Z,41.08
2023-03-01T19:49:59.607Z,41.13
2023-03-01T19:52:30.085Z,39.42
2023-03-01T19:55:08.837Z,37.70
2023-03-01T19:57:39.820Z,38.92
2023-03-01T20:00:10.774Z,36.85
2023-03-01T20:02:44.643Z,37.75
2023-03-01T20:05:14.893Z,35.72
2023-03-01T20:07:45.807Z,35.33
2023-03-01T20:10:16.188Z,36.33
2023-03-01T20:12:47.299Z,34.10
2023-03-01T20:15:17.434Z,36.25
2023-03-01T20:17:48.118Z,34.65
2023-03-01T20:20:18.667Z,33.97
2023-03-01T20:22:49.107Z,34.58
2023-03-01T20:25:20.158Z,33.15
2023-03-01T20:27:52.521Z,34.17
2023-03-01T20:30:23.071Z,32.83
2023-03-01T20:32:53.587Z,31.08
2023-03-01T20:35:24.132Z,32.58
2023-03-01T20:37:55.497Z,32.35
2023-03-01T20:40:29.675Z,31.33
2023-03-01T20:43:00.862Z,31.58
2023-03-01T20:45:31.369Z,30.30
2023-03-01T20:48:01.333Z,32.15
2023-03-01T20:50:31.415Z,30.10
2023-03-01T20:53:01.799Z,28.75
2023-03-01T20:55:32.328Z,28.35
2023-03-01T20:58:02.721Z,27.52
2023-03-01T21:00:32.861Z,27.63
2023-03-01T21:03:02.985Z,26.17
2023-03-01T21:05:33.207Z,27.45
2023-03-01T21:08:04.499Z,26.42
2023-03-01T21:10:35.258Z,25.25
2023-03-01T21:13:05.311Z,25.67
2023-03-01T21:15:35.438Z,26.23
2023-03-01T21:18:05.498Z,26.45
2023-03-01T21:20:35.791Z,25.05
2023-03-01T21:23:05.844Z,25.50
2023-03-01T21:25:36.635Z,25.00
2023-03-01T21:28:06.906Z,25.00
2023-03-01T21:30:38.238Z,25.27
2023-03-01T21:33:08.983Z,24.95
2023-03-01T21:35:39.237Z,24.92
2023-03-01T21:38:09.938Z,24.35
2023-03-01T21:40:40.056Z,24.23
2023-03-01T21:43:10.490Z,24.88
2023-03-01T21:45:41.536Z,24.90
2023-03-01T21:48:12.187Z,23.67
2023-03-01T21:50:42.731Z,24.92
2023-03-01T21:53:12.969Z,25.05
2023-03-01T21:55:49.725Z,24.40
2023-03-01T21:58:20.938Z,25.15
2023-03-01T22:00:51.626Z,23.80
2023-03-01T22:03:22.236Z,22.80
2023-03-01T22:06:00.566Z,23.33
2023-03-01T22:08:31.395Z,22.85
2023-03-01T22:11:04.972Z,24.05
2023-03-01T22:13:35.835Z,22.80
2023-03-01T22:16:06.266Z,23.75
2023-03-01T22:18:36.396Z,22.05
2023-03-01T22:21:08.643Z,23.83
2023-03-01T22:23:39.500Z,23.77
2023-03-01T22:26:11.082Z,24.85
2023-03-01T22:28:42.039Z,25.17
2023-03-01T22:31:13.275Z,24.30
2023-03-01T22:33:44.074Z,24.92
2023-03-01T22:36:14.996Z,23.92
2023-03-01T22:38:45.488Z,26.48
2023-03-01T22:41:15.960Z,25.08
2023-03-01T22:43:46.047Z,25.73
2023-03-01T22:46:19.298Z,25.95
2023-03-01T22:48:51.447Z,25.27
2023-03-01T22:51:25.259Z,25.63
2023-03-01T22:53:55.846Z,26.15
2023-03-01T22:56:30.698Z,26.45
2023-03-01T22:59:02.608Z,27.77
2023-03-01T23:01:33.494Z,27.30
2023-03-01T23:04:04.387Z,26.98
2023-03-01T23:06:35.028Z,28.58
2023-03-01T23:09:08.338Z,28.10
2023-03-01T23:11:39.117Z,29.48
2023-03-01T23:14:09.939Z,50.65
2023-03-01T23:16:40.510Z,29.25
2023-03-01T23:19:10.795Z,29.70
2023-03-01T23:21:45.796Z,28.08
2023-03-01T23:24:16.785Z,28.30
2023-03-01T23:26:47.375Z,34.83
2023-03-01T23:29:17.599Z,37.50
2023-03-01T23:31:48.064Z,32.33
2023-03-01T23:34:18.689Z,31.48
2023-03-01T23:36:48.810Z,30.27
2023-03-01T23:39:19.407Z,30.02
2023-03-01T23:41:50.077Z,30.80
2023-03-01T23:44:22.994Z,30.10
2023-03-01T23:46:53.440Z,29.33
2023-03-01T23:49:26.321Z,28.92
2023-03-01T23:51:56.382Z,29.38
2023-03-01T23:54:27.570Z,29.67
2023-03-01T23:56:57.985Z,31.23
2023-03-01T23:59:28.625Z,30.83
